createdAt,value
2023-03-01T07:04:21.352Z,4.90
2023-03-01T07:08:14.175Z,4.98
2023-03-01T07:12:09.194Z,4.91
2023-03-01T07:16:02.181Z,5.03
2023-03-01T07:19:55.611Z,4.73
2023-03-01T07:23:50.458Z,4.87
2023-03-01T07:27:43.320Z,5.03
2023-03-01T07:31:38.082Z,4.83
2023-03-01T07:35:31.031Z,4.80
2023-03-01T07:39:26.387Z,5.11
2023-03-01T07:43:19.307Z,5.25
2023-03-01T07:47:11.937Z,5.39
2023-03-01T07:51:08.278Z,5.36
2023-03-01T07:55:00.996Z,5.65
2023-03-01T07:58:54.047Z,5.45
2023-03-01T08:02:47.430Z,5.42
2023-03-01T08:06:40.258Z,5.49
2023-03-01T08:10:32.838Z,5.58
2023-03-01T08:14:25.498Z,5.80
2023-03-01T08:18:19.742Z,5.81
2023-03-01T08:22:12.594Z,5.83
2023-03-01T08:26:09.917Z,6.11
2023-03-01T08:30:02.829Z,6.15
2023-03-01T08:33:59.602Z,6.65
2023-03-01T08:37:52.216Z,6.55
2023-03-01T08:41:48.384Z,6.94
2023-03-01T08:45:41.138Z,7.32
2023-03-01T08:49:34.189Z,7.54
2023-03-01T08:53:26.946Z,7.59
2023-03-01T08:57:20.224Z,7.63
2023-03-01T09:01:17.902Z,7.75
2023-03-01T09:05:10.921Z,8.07
2023-03-01T09:09:05.853Z,8.07
2023-03-01T09:12:59.717Z,8.08
2023-03-01T09:16:52.993Z,8.03
2023-03-01T09:20:46.290Z,8.00
2023-03-01T09:24:41.093Z,8.11
2023-03-01T09:28:34.017Z,8.15
2023-03-01T09:32:36.395Z,8.24
2023-03-01T09:36:30.275Z,8.28
2023-03-01T09:40:28.152Z,8.20
2023-03-01T09:44:34.836Z,8.20
2023-03-01T09:48:31.093Z,8.20
2023-03-01T09:52:44.353Z,8.21
2023-03-01T09:57:02.603Z,8.38
2023-03-01T10:00:58.719Z,8.44
2023-03-01T10:04:57.741Z,8.31
2023-03-01T10:08:57.995Z,8.41
2023-03-01T10:12:54.578Z,8.45
2023-03-01T10:17:00.147Z,8.58
2023-03-01T10:21:09.310Z,8.56
2023-03-01T10:25:04.998Z,8.63
2023-03-01T10:29:11.134Z,8.69
2023-03-01T10:33:10.001Z,8.93
2023-03-01T10:37:16.988Z,8.97
2023-03-01T10:41:14.437Z,8.97
2023-03-01T10:45:17.325Z,8.87
2023-03-01T10:49:24.041Z,9.07
2023-03-01T10:53:28.377Z,9.14
2023-03-01T10:57:39.385Z,9.21
2023-03-01T11:01:37.137Z,9.28
2023-03-01T11:05:31.633Z,9.30
2023-03-01T11:09:28.303Z,9.38
2023-03-01T11:13:21.448Z,9.46
2023-03-01T11:17:20.874Z,9.54
2023-03-01T11:21:14.581Z,9.46
2023-03-01T11:25:17.545Z,9.45
2023-03-01T11:29:47.892Z,9.61
2023-03-01T11:38:43.329Z,9.72
2023-03-01T11:42:55.232Z,9.73
2023-03-01T11:47:09.450Z,9.82
2023-03-01T11:51:21.141Z,9.86
2023-03-01T11:55:58.176Z,9.87
2023-03-01T12:04:31.191Z,10.13
2023-03-01T12:08:51.657Z,10.33
2023-03-01T12:13:15.280Z,10.34
2023-03-01T12:17:26.432Z,10.69
2023-03-01T12:21:41.972Z,10.76
2023-03-01T12:25:46.711Z,10.66
2023-03-01T12:29:48.172Z,10.72
2023-03-01T12:34:09.649Z,10.59
2023-03-01T12:38:20.984Z,10.57
2023-03-01T12:42:25.665Z,10.48
2023-03-01T12:46:30.544Z,10.69
2023-03-01T12:50:36.666Z,10.80
2023-03-01T12:54:32.840Z,10.95
2023-03-01T12:58:43.507Z,11.16
2023-03-01T13:02:53.430Z,11.16
2023-03-01T13:07:20.909Z,11.30
2023-03-01T13:11:23.549Z,11.31
2023-03-01T13:15:25.266Z,11.22
2023-03-01T13:19:26.521Z,11.07
2023-03-01T13:23:26.022Z,11.06
2023-03-01T13:27:18.650Z,11.00
2023-03-01T13:31:31.838Z,10.96
2023-03-01T13:35:27.696Z,10.95
2023-03-01T13:39:33.755Z,10.80
2023-03-01T13:43:32.355Z,10.83
2023-03-01T13:47:25.402Z,10.72
2023-03-01T13:51:24.464Z,10.76
2023-03-01T13:55:24.805Z,10.79
2023-03-01T13:59:23.544Z,10.72
2023-03-01T14:03:19.352Z,10.64
2023-03-01T14:07:19.490Z,10.66
2023-03-01T14:11:40.546Z,10.59
2023-03-01T14:15:37.611Z,10.54
2023-03-01T14:19:34.169Z,10.55
2023-03-01T14:23:28.227Z,10.61
2023-03-01T14:27:21.389Z,10.61
2023-03-01T14:31:52.683Z,10.59
2023-03-01T14:36:13.883Z,10.64
2023-03-01T14:40:20.902Z,10.57
2023-03-01T14:44:25.683Z,10.51
2023-03-01T14:48:19.893Z,10.38
2023-03-01T14:52:40.035Z,10.34
2023-03-01T14:56:46.109Z,10.34
2023-03-01T15:00:40.071Z,10.33
2023-03-01T15:04:35.274Z,10.30
2023-03-01T15:08:34.418Z,10.30
2023-03-01T15:12:30.153Z,10.24
2023-03-01T15:16:26.013Z,10.17
2023-03-01T15:20:22.861Z,10.13
2023-03-01T15:24:28.871Z,10.09
2023-03-01T15:28:22.141Z,10.11
2023-03-01T15:32:33.159Z,10.03
2023-03-01T15:36:41.051Z,10.02
2023-03-01T15:40:34.034Z,9.94
2023-03-01T15:44:42.729Z,10.00
2023-03-01T15:48:36.268Z,9.93
2023-03-01T15:52:37.973Z,9.83
2023-03-01T15:56:31.311Z,9.87
2023-03-01T16:00:24.392Z,9.81
2023-03-01T16:04:24.418Z,9.73
2023-03-01T16:08:17.996Z,9.76
2023-03-01T16:12:18.402Z,9.62
2023-03-01T16:16:13.966Z,9.39
2023-03-01T16:20:07.253Z,9.21
2023-03-01T16:24:10.080Z,9.11
2023-03-01T16:28:06.218Z,8.99
2023-03-01T16:32:02.956Z,8.86
2023-03-01T16:35:56.097Z,8.76
2023-03-01T16:39:52.401Z,8.69
2023-03-01T16:43:45.362Z,8.59
2023-03-01T16:47:38.829Z,8.46
2023-03-01T16:51:35.927Z,8.38
2023-03-01T16:55:29.243Z,8.42
2023-03-01T16:59:22.078Z,8.40
2023-03-01T17:03:15.151Z,8.28
2023-03-01T17:07:08.823Z,8.23
2023-03-01T17:11:11.127Z,8.01
2023-03-01T17:15:05.667Z,8.00
2023-03-01T17:18:58.948Z,7.96
2023-03-01T17:22:53.954Z,7.87
2023-03-01T17:26:47.971Z,7.80
2023-03-01T17:30:45.793Z,7.76
2023-03-01T17:34:38.969Z,7.66
2023-03-01T17:38:32.932Z,7.63
2023-03-01T17:42:26.023Z,7.65
2023-03-01T17:46:19.429Z,7.58
2023-03-01T17:50:13.279Z,7.65
2023-03-01T17:54:09.892Z,7.56
2023-03-01T17:58:02.989Z,7.45
2023-03-01T18:01:56.701Z,7.36
2023-03-01T18:05:51.357Z,7.34
2023-03-01T18:09:44.469Z,7.36
2023-03-01T18:13:40.341Z,7.20
2023-03-01T18:17:34.369Z,7.11
2023-03-01T18:21:29.058Z,7.17
2023-03-01T18:25:25.254Z,7.17
2023-03-01T18:29:18.650Z,7.17
2023-03-01T18:33:14.606Z,7.08
2023-03-01T18:37:10.149Z,6.94
2023-03-01T18:41:03.473Z,6.87
2023-03-01T18:44:56.927Z,6.97
2023-03-01T18:48:53.834Z,6.82
2023-03-01T18:52:47.674Z,6.72
2023-03-01T18:56:41.052Z,6.72
2023-03-01T19:00:36.655Z,6.71
2023-03-01T19:04:30.283Z,6.71
2023-03-01T19:08:23.858Z,6.65
2023-03-01T19:12:17.935Z,6.52
2023-03-01T19:16:14.343Z,6.31
2023-03-01T19:20:09.342Z,6.24
2023-03-01T19:24:07.876Z,6.20
2023-03-01T19:28:01.746Z,6.17
2023-03-01T19:31:55.873Z,6.18
2023-03-01T19:35:50.180Z,5.98
2023-03-01T19:39:44.166Z,6.01
2023-03-01T19:43:38.538Z,5.77
2023-03-01T19:47:34.110Z,5.76
2023-03-01T19:51:29.853Z,5.71
2023-03-01T19:55:22.966Z,5.32
2023-03-01T19:59:16.492Z,5.11
2023-03-01T20:03:09.710Z,5.14
2023-03-01T20:07:04.169Z,4.77
2023-03-01T20:11:10.726Z,4.84
2023-03-01T20:15:04.884Z,4.94
2023-03-01T20:19:01.280Z,4.94
2023-03-01T20:22:54.961Z,4.86
2023-03-01T20:26:48.697Z,5.17
2023-03-01T20:30:44.153Z,4.98
2023-03-01T20:34:37.780Z,5.17
2023-03-01T20:38:31.567Z,5.27
2023-03-01T20:42:24.939Z,5.35
2023-03-01T20:46:19.503Z,5.34
2023-03-01T20:50:13.316Z,5.28
2023-03-01T20:54:07.100Z,5.30
2023-03-01T20:58:00.151Z,5.15
2023-03-01T21:01:53.709Z,5.04
2023-03-01T21:05:47.667Z,5.14
2023-03-01T21:09:42.322Z,4.88
2023-03-01T21:13:36.068Z,4.70
2023-03-01T21:17:29.182Z,4.49
2023-03-01T21:21:25.696Z,4.55
2023-03-01T21:25:18.597Z,4.55
2023-03-01T21:29:11.286Z,4.70
2023-03-01T21:33:05.077Z,4.69
2023-03-01T21:36:57.873Z,4.63
2023-03-01T21:40:50.742Z,4.72
2023-03-01T21:44:43.794Z,4.70
2023-03-01T21:48:36.739Z,4.57
2023-03-01T21:52:29.710Z,4.44
2023-03-01T21:56:27.731Z,4.38
2023-03-01T23:09:04.706Z,3.80
2023-03-01T23:26:15.604Z,3.98
2023-03-01T23:30:09.123Z,4.15
2023-03-01T23:34:02.616Z,4.28
2023-03-01T23:42:09.444Z,4.11
2023-03-01T23:46:02.362Z,4.05
